createdAt,value
2023-03-31T00:09:33.493Z,99418.09
2023-03-31T00:19:36.383Z,99409.88
2023-03-31T00:29:41.503Z,99390.72
2023-03-31T00:39:43.654Z,99367.75
2023-03-31T00:49:48.299Z,99340.28
2023-03-31T00:59:53.107Z,99337.78
2023-03-31T01:10:00.054Z,99316.06
2023-03-31T01:20:34.570Z,99308.22
2023-03-31T01:31:15.411Z,99277.66
2023-03-31T01:41:36.184Z,99269.38
2023-03-31T01:51:51.883Z,99231.28
2023-03-31T02:01:58.413Z,99220.59
2023-03-31T02:12:03.843Z,99213.94
2023-03-31T02:22:07.924Z,99204.00
2023-03-31T02:32:24.315Z,99174.81
2023-03-31T02:42:28.335Z,99146.72
2023-03-31T02:52:40.707Z,99123.38
2023-03-31T03:02:57.896Z,99092.72
2023-03-31T03:13:18.628Z,99054.69
2023-03-31T03:23:20.727Z,99033.19
2023-03-31T03:33:24.941Z,99018.94
2023-03-31T03:43:27.065Z,98983.41
2023-03-31T03:53:29.169Z,98959.28
2023-03-31T04:03:31.254Z,98955.59
2023-03-31T04:13:33.328Z,98917.63
2023-03-31T04:23:42.722Z,98894.31
2023-03-31T04:33:46.037Z,98894.56
2023-03-31T04:43:48.169Z,98864.72
2023-03-31T04:53:50.375Z,98869.47
2023-03-31T05:03:52.505Z,98855.13
2023-03-31T05:13:54.838Z,98834.91
2023-03-31T05:23:57.876Z,98798.16
2023-03-31T05:33:59.957Z,98776.44
2023-03-31T05:44:05.072Z,98734.81
2023-03-31T05:54:07.300Z,98705.72
2023-03-31T06:04:09.642Z,98694.97
2023-03-31T06:14:11.998Z,98674.44
2023-03-31T06:24:14.086Z,98661.13
2023-03-31T06:34:17.821Z,98655.94
2023-03-31T06:44:23.083Z,98652.91
2023-03-31T06:54:25.257Z,98642.75
2023-03-31T07:04:27.483Z,98632.13
2023-03-31T07:14:29.541Z,98637.47
2023-03-31T07:24:31.652Z,98624.34
2023-03-31T07:34:35.539Z,98638.84
2023-03-31T07:44:39.615Z,98633.78
2023-03-31T07:54:42.042Z,98621.56
2023-03-31T08:04:45.286Z,98606.91
2023-03-31T08:14:47.360Z,98584.84
2023-03-31T08:24:49.451Z,98577.69
2023-03-31T08:34:51.634Z,98568.78
2023-03-31T08:45:09.277Z,98561.03
2023-03-31T08:55:17.055Z,98562.94
2023-03-31T09:05:57.221Z,98574.94
2023-03-31T09:16:16.621Z,98585.06
2023-03-31T09:26:49.403Z,98550.91
2023-03-31T09:36:52.419Z,98544.09
2023-03-31T09:46:55.579Z,98522.84
2023-03-31T09:56:57.819Z,98507.28
2023-03-31T10:07:01.081Z,98507.44
2023-03-31T10:17:06.509Z,98486.75
2023-03-31T10:27:21.122Z,98454.91
2023-03-31T10:37:26.204Z,98445.56
2023-03-31T10:47:33.248Z,98470.13
2023-03-31T10:57:45.280Z,98463.03
2023-03-31T11:08:12.313Z,98431.31
2023-03-31T11:18:52.910Z,98397.28
2023-03-31T11:29:01.238Z,98385.59
2023-03-31T11:39:30.432Z,98490.53
2023-03-31T11:49:39.124Z,98463.00
2023-03-31T11:59:43.084Z,98462.91
2023-03-31T12:10:05.760Z,98457.44
2023-03-31T12:20:35.052Z,98434.66
2023-03-31T12:30:42.012Z,98419.31
2023-03-31T12:41:05.330Z,98404.91
2023-03-31T12:51:13.606Z,98392.38
2023-03-31T13:01:23.732Z,98409.59
2023-03-31T13:11:38.268Z,98412.84
2023-03-31T13:21:54.524Z,98392.69
2023-03-31T13:32:02.899Z,98362.31
2023-03-31T13:42:26.677Z,98367.59
2023-03-31T13:52:44.118Z,98370.47
2023-03-31T14:03:20.653Z,98348.66
2023-03-31T14:13:25.255Z,98349.81
2023-03-31T14:23:33.191Z,98338.63
2023-03-31T14:33:46.352Z,98312.00
2023-03-31T14:43:51.028Z,98308.38
2023-03-31T14:53:59.714Z,98295.84
2023-03-31T15:04:12.673Z,98288.38
2023-03-31T15:14:14.804Z,98270.44
2023-03-31T15:24:17.858Z,98275.56
2023-03-31T15:34:30.721Z,98289.84
2023-03-31T15:44:39.683Z,98319.53
2023-03-31T15:54:42.159Z,98366.22
2023-03-31T16:04:48.494Z,98346.28
2023-03-31T16:15:07.528Z,98313.16
2023-03-31T16:25:15.344Z,98316.03
2023-03-31T16:35:17.615Z,98313.97
2023-03-31T16:45:21.714Z,98316.00
2023-03-31T16:55:24.274Z,98308.41
2023-03-31T17:05:28.053Z,98306.00
2023-03-31T17:15:30.592Z,98305.91
2023-03-31T17:25:34.437Z,98287.97
2023-03-31T17:35:37.155Z,98289.16
2023-03-31T17:45:39.274Z,98294.84
2023-03-31T17:55:41.426Z,98311.38
2023-03-31T18:05:43.968Z,98318.00
2023-03-31T18:15:49.086Z,98304.84
2023-03-31T18:25:51.619Z,98334.78
2023-03-31T18:35:54.148Z,98325.78
2023-03-31T18:45:58.660Z,98325.34
2023-03-31T18:56:01.330Z,98334.94
2023-03-31T19:06:05.931Z,98335.91
2023-03-31T19:16:08.437Z,98323.84
2023-03-31T19:26:14.494Z,98328.56
2023-03-31T19:36:16.976Z,98335.91
2023-03-31T19:46:19.177Z,98329.81
2023-03-31T19:56:25.071Z,98318.63
2023-03-31T20:06:29.029Z,98300.41
2023-03-31T20:16:31.595Z,98296.84
2023-03-31T20:26:34.595Z,98294.50
2023-03-31T20:36:36.695Z,98300.88
2023-03-31T20:46:39.396Z,98290.03
2023-03-31T20:56:41.723Z,98297.34
2023-03-31T21:06:46.717Z,98302.84
2023-03-31T21:16:49.126Z,98313.16
2023-03-31T21:26:51.317Z,98309.78
2023-03-31T21:36:54.003Z,98310.81
2023-03-31T21:46:56.329Z,98312.06
2023-03-31T21:56:58.849Z,98309.59
2023-03-31T22:07:01.254Z,98315.69
2023-03-31T22:17:03.824Z,98314.34
2023-03-31T22:27:06.660Z,98307.94
2023-03-31T22:37:08.940Z,98312.50
2023-03-31T22:47:11.412Z,98304.34
2023-03-31T22:57:14.656Z,98304.41
2023-03-31T23:07:18.108Z,98310.00
2023-03-31T23:17:21.385Z,98297.00
2023-03-31T23:27:23.501Z,98305.72
2023-03-31T23:37:28.403Z,98296.22
2023-03-31T23:47:32.462Z,98290.34
2023-03-31T23:57:34.578Z,98288.84
